createdAt,value
2019-02-27T00:00:52.395Z,21.17
2019-02-27T00:04:55.790Z,18.63
2019-02-27T00:09:00.580Z,20.10
2019-02-27T00:13:04.247Z,21.40
2019-02-27T00:17:08.325Z,21.10
2019-02-27T00:21:11.794Z,21.50
2019-02-27T00:25:15.190Z,20.63
2019-02-27T00:29:18.605Z,20.20
2019-02-27T00:33:25.060Z,20.13
2019-02-27T00:37:27.160Z,21.00
2019-02-27T00:41:30.683Z,20.83
2019-02-27T00:45:34.089Z,18.40
2019-02-27T00:49:37.491Z,19.07
2019-02-27T00:53:40.943Z,21.13
2019-02-27T00:57:44.408Z,23.45
2019-02-27T01:01:48.025Z,25.30
2019-02-27T01:05:51.534Z,22.93
2019-02-27T01:09:55.001Z,21.57
2019-02-27T01:13:58.354Z,21.17
2019-02-27T01:18:01.762Z,24.23
2019-02-27T01:22:05.584Z,25.85
2019-02-27T01:26:08.988Z,22.30
2019-02-27T01:30:14.870Z,25.15
2019-02-27T01:34:18.263Z,22.37
2019-02-27T01:38:21.566Z,23.33
2019-02-27T01:42:24.881Z,23.27
2019-02-27T01:46:28.449Z,27.27
2019-02-27T01:50:33.447Z,22.07
2019-02-27T01:54:36.843Z,22.60
2019-02-27T01:58:43.307Z,22.43
2019-02-27T02:02:45.298Z,23.23
2019-02-27T02:06:48.712Z,21.83
2019-02-27T02:10:53.927Z,26.43
2019-02-27T02:15:21.949Z,24.37
2019-02-27T02:19:54.017Z,25.77
2019-02-27T02:23:59.793Z,22.85
2019-02-27T02:28:15.510Z,24.20
2019-02-27T02:32:34.254Z,22.07
2019-02-27T02:36:40.966Z,30.07
2019-02-27T02:40:56.435Z,28.60
2019-02-27T02:45:33.118Z,29.77
2019-02-27T02:50:17.461Z,29.43
2019-02-27T02:54:37.437Z,29.63
2019-02-27T02:58:57.166Z,28.07
2019-02-27T03:07:16.699Z,29.10
2019-02-27T03:11:29.127Z,28.20
2019-02-27T03:15:35.704Z,29.53
2019-02-27T03:19:44.950Z,27.87
2019-02-27T03:24:09.760Z,28.30
2019-02-27T03:28:28.441Z,28.63
2019-02-27T03:32:44.357Z,28.77
2019-02-27T03:37:17.843Z,26.77
2019-02-27T03:41:36.364Z,30.27
2019-02-27T03:45:45.712Z,27.37
2019-02-27T03:49:52.297Z,28.03
2019-02-27T03:54:20.930Z,29.13
2019-02-27T03:58:30.578Z,27.53
2019-02-27T04:02:53.262Z,27.93
2019-02-27T04:07:06.082Z,27.23
2019-02-27T04:11:09.526Z,28.53
2019-02-27T04:15:17.687Z,28.73
2019-02-27T04:19:18.157Z,28.63
2019-02-27T04:23:21.563Z,26.97
2019-02-27T04:27:24.969Z,25.97
2019-02-27T04:31:30.577Z,24.13
2019-02-27T04:35:34.311Z,25.90
2019-02-27T04:39:38.269Z,27.77
2019-02-27T04:43:42.187Z,25.00
2019-02-27T04:47:45.499Z,25.13
2019-02-27T04:51:50.606Z,24.90
2019-02-27T04:55:53.953Z,26.03
2019-02-27T04:59:57.269Z,27.90
2019-02-27T05:04:01.450Z,27.07
2019-02-27T05:08:05.507Z,29.34
2019-02-27T05:12:08.926Z,27.43
2019-02-27T05:16:14.265Z,29.23
2019-02-27T05:20:17.478Z,27.60
2019-02-27T05:24:20.887Z,28.30
2019-02-27T05:28:24.293Z,28.60
2019-02-27T05:32:28.294Z,28.03
2019-02-27T05:36:32.374Z,28.00
2019-02-27T05:40:35.873Z,28.03
2019-02-27T05:44:39.566Z,26.97
2019-02-27T05:48:42.976Z,27.13
2019-02-27T05:52:48.899Z,27.17
2019-02-27T05:56:51.539Z,27.73
2019-02-27T06:00:55.354Z,26.17
2019-02-27T06:04:59.057Z,26.97
2019-02-27T06:09:03.914Z,26.97
2019-02-27T06:13:07.318Z,27.47
2019-02-27T06:17:12.894Z,27.63
2019-02-27T06:21:16.606Z,27.10
2019-02-27T06:25:23.327Z,28.80
2019-02-27T06:29:25.055Z,25.43
2019-02-27T06:33:28.370Z,21.83
2019-02-27T06:37:31.764Z,25.97
2019-02-27T06:41:35.133Z,25.75
2019-02-27T06:45:38.819Z,21.62
2019-02-27T06:49:42.196Z,22.90
2019-02-27T06:53:46.084Z,27.07
2019-02-27T06:57:49.527Z,25.40
2019-02-27T07:01:52.894Z,25.45
2019-02-27T07:05:56.752Z,27.75
2019-02-27T07:10:00.281Z,27.22
2019-02-27T07:14:03.713Z,26.73
2019-02-27T07:18:07.186Z,28.12
2019-02-27T07:22:12.650Z,28.80
2019-02-27T07:26:15.995Z,28.60
2019-02-27T07:30:23.630Z,25.10
2019-02-27T07:34:26.552Z,29.16
2019-02-27T07:38:30.014Z,30.40
2019-02-27T07:42:33.376Z,31.14
2019-02-27T07:46:36.886Z,31.93
2019-02-27T07:50:40.699Z,33.15
2019-02-27T07:54:44.124Z,33.58
2019-02-27T07:58:47.516Z,33.10
2019-02-27T08:02:50.822Z,34.25
2019-02-27T08:06:54.241Z,33.83
2019-02-27T08:10:57.649Z,33.58
2019-02-27T08:15:00.974Z,34.30
2019-02-27T08:19:04.370Z,33.80
2019-02-27T08:23:07.778Z,32.65
2019-02-27T08:27:11.184Z,32.03
2019-02-27T08:31:14.594Z,34.33
2019-02-27T08:35:18.004Z,32.98
2019-02-27T08:39:21.417Z,33.42
2019-02-27T08:43:24.821Z,33.92
2019-02-27T08:47:28.227Z,32.75
2019-02-27T08:51:31.636Z,33.25
2019-02-27T08:55:38.997Z,31.85
2019-02-27T08:59:40.771Z,25.52
2019-02-27T09:03:44.219Z,23.38
2019-02-27T09:07:47.628Z,24.67
2019-02-27T09:11:51.044Z,23.60
2019-02-27T09:15:54.445Z,23.38
2019-02-27T09:19:57.854Z,28.83
2019-02-27T09:24:01.267Z,26.73
2019-02-27T09:28:08.786Z,24.70
2019-02-27T09:32:11.657Z,22.07
2019-02-27T09:36:14.981Z,22.45
2019-02-27T09:40:26.987Z,21.33
2019-02-27T09:44:30.392Z,22.05
2019-02-27T09:48:34.103Z,22.15
2019-02-27T09:52:37.619Z,22.50
2019-02-27T09:56:41.028Z,21.62
2019-02-27T10:00:46.447Z,20.48
2019-02-27T10:04:49.891Z,21.00
2019-02-27T10:08:53.256Z,21.62
2019-02-27T10:12:56.618Z,21.37
2019-02-27T10:17:00.020Z,20.10
2019-02-27T10:21:03.429Z,25.82
2019-02-27T10:25:08.619Z,20.82
2019-02-27T10:29:13.442Z,17.10
2019-02-27T10:33:18.156Z,16.48
2019-02-27T10:37:21.636Z,15.50
2019-02-27T10:41:25.699Z,15.25
2019-02-27T10:45:29.304Z,15.88
2019-02-27T10:49:32.720Z,15.55
2019-02-27T10:53:36.435Z,15.43
2019-02-27T10:57:39.785Z,15.32
2019-02-27T11:01:43.250Z,14.10
2019-02-27T11:05:46.663Z,13.38
2019-02-27T11:09:50.070Z,14.18
2019-02-27T11:13:55.431Z,13.20
2019-02-27T11:18:04.183Z,13.68
2019-02-27T11:22:03.671Z,12.23
2019-02-27T11:26:07.084Z,12.95
2019-02-27T11:30:16.738Z,11.20
2019-02-27T11:34:20.153Z,12.53
2019-02-27T11:38:24.784Z,10.87
2019-02-27T11:42:31.797Z,11.07
2019-02-27T11:46:35.147Z,10.60
2019-02-27T11:50:39.106Z,9.33
2019-02-27T11:54:43.280Z,8.50
2019-02-27T11:58:47.463Z,8.13
2019-02-27T12:02:50.872Z,7.30
2019-02-27T12:06:54.283Z,6.50
2019-02-27T12:10:57.690Z,6.62
2019-02-27T12:15:01.099Z,5.92
2019-02-27T12:19:06.377Z,5.55
2019-02-27T12:23:10.083Z,5.72
2019-02-27T12:27:25.688Z,4.55
2019-02-27T12:31:19.656Z,5.83
2019-02-27T12:35:25.828Z,4.70
2019-02-27T12:39:29.236Z,4.85
2019-02-27T12:43:32.642Z,5.05
2019-02-27T12:47:37.622Z,4.00
2019-02-27T12:51:41.198Z,4.45
2019-02-27T12:55:44.716Z,4.67
2019-02-27T12:59:48.123Z,4.60
2019-02-27T13:03:51.537Z,4.53
2019-02-27T13:07:54.939Z,4.53
2019-02-27T13:11:58.391Z,4.12
2019-02-27T13:16:01.759Z,4.58
2019-02-27T13:20:12.521Z,4.30
2019-02-27T13:24:16.067Z,4.47
2019-02-27T13:28:19.562Z,5.83
2019-02-27T13:32:26.556Z,6.78
2019-02-27T13:36:28.535Z,7.10
2019-02-27T13:40:35.143Z,7.00
2019-02-27T13:44:38.834Z,8.45
2019-02-27T13:48:42.445Z,8.00
2019-02-27T13:52:49.902Z,7.40
2019-02-27T13:56:52.019Z,8.80
2019-02-27T14:00:55.439Z,8.25
2019-02-27T14:05:00.622Z,8.45
2019-02-27T14:09:07.059Z,9.03
2019-02-27T14:13:10.786Z,9.45
2019-02-27T14:17:14.247Z,8.20
2019-02-27T14:21:17.609Z,8.95
2019-02-27T14:25:33.069Z,8.68
2019-02-27T14:29:35.380Z,8.25
2019-02-27T14:33:38.793Z,8.80
2019-02-27T14:37:42.201Z,6.33
2019-02-27T14:41:48.221Z,9.08
2019-02-27T14:45:50.964Z,8.33
2019-02-27T14:49:54.617Z,8.15
2019-02-27T14:53:58.907Z,8.45
2019-02-27T14:58:02.315Z,7.78
2019-02-27T15:02:05.726Z,7.45
2019-02-27T15:06:09.133Z,6.50
2019-02-27T15:10:17.707Z,5.85
2019-02-27T15:14:21.282Z,6.03
2019-02-27T15:18:24.788Z,5.27
2019-02-27T15:22:28.196Z,5.37
2019-02-27T15:26:31.709Z,6.45
2019-02-27T15:30:37.288Z,9.13
2019-02-27T15:34:45.923Z,9.30
2019-02-27T15:38:50.121Z,9.88
2019-02-27T15:42:53.447Z,10.35
2019-02-27T15:46:57.325Z,12.28
2019-02-27T15:51:04.013Z,12.37
2019-02-27T15:55:09.314Z,13.08
2019-02-27T15:59:12.831Z,13.88
2019-02-27T16:03:16.229Z,13.08
2019-02-27T16:07:19.631Z,14.07
2019-02-27T16:11:23.039Z,14.07
2019-02-27T16:15:26.663Z,15.08
2019-02-27T16:19:33.817Z,15.43
2019-02-27T16:23:39.225Z,15.32
2019-02-27T16:27:46.433Z,13.72
2019-02-27T16:31:50.550Z,10.20
2019-02-27T16:35:56.975Z,8.90
2019-02-27T16:40:00.627Z,7.30
2019-02-27T16:44:04.044Z,7.67
2019-02-27T16:48:07.442Z,7.45
2019-02-27T16:52:10.875Z,9.23
2019-02-27T16:56:14.258Z,11.05
2019-02-27T17:00:21.341Z,13.32
2019-02-27T17:04:24.864Z,11.18
2019-02-27T17:08:28.424Z,13.25
2019-02-27T17:12:31.720Z,11.55
2019-02-27T17:16:38.335Z,12.03
2019-02-27T17:20:46.083Z,12.10
2019-02-27T17:24:47.033Z,10.25
2019-02-27T17:28:51.641Z,9.65
2019-02-27T17:32:55.591Z,9.48
2019-02-27T17:36:59.101Z,9.35
2019-02-27T17:41:02.540Z,9.95
2019-02-27T17:45:10.027Z,7.10
2019-02-27T17:49:14.447Z,7.92
2019-02-27T17:53:20.480Z,7.80
2019-02-27T17:57:25.031Z,8.90
2019-02-27T18:01:28.367Z,8.58
2019-02-27T18:05:31.817Z,10.63
2019-02-27T18:09:35.202Z,11.48
2019-02-27T18:13:39.158Z,11.33
2019-02-27T18:17:42.742Z,12.47
2019-02-27T18:21:46.262Z,13.22
2019-02-27T18:25:49.663Z,12.10
2019-02-27T18:29:53.100Z,13.78
2019-02-27T18:33:56.504Z,14.83
2019-02-27T18:37:59.930Z,15.35
2019-02-27T18:42:04.447Z,14.47
2019-02-27T18:46:07.837Z,14.95
2019-02-27T18:50:13.003Z,15.23
2019-02-27T18:54:16.393Z,15.53
2019-02-27T18:58:20.958Z,14.65
2019-02-27T19:02:25.054Z,16.20
2019-02-27T19:06:28.463Z,15.23
2019-02-27T19:10:32.021Z,15.57
2019-02-27T19:14:36.723Z,16.62
2019-02-27T19:18:41.145Z,16.52
2019-02-27T19:22:45.273Z,16.70
2019-02-27T19:26:49.516Z,16.57
2019-02-27T19:30:53.031Z,17.30
2019-02-27T19:34:56.422Z,17.07
2019-02-27T19:38:59.806Z,15.50
2019-02-27T19:43:04.506Z,17.55
2019-02-27T19:47:07.988Z,17.42
2019-02-27T19:51:11.492Z,17.40
2019-02-27T19:55:15.004Z,16.65
2019-02-27T19:59:24.639Z,16.20
2019-02-27T20:03:23.979Z,17.80
2019-02-27T20:07:27.424Z,17.05
2019-02-27T20:11:30.796Z,15.85
2019-02-27T20:15:34.300Z,16.62
2019-02-27T20:19:37.710Z,15.45
2019-02-27T20:23:41.223Z,17.00
2019-02-27T20:27:44.735Z,16.07
2019-02-27T20:31:48.244Z,17.17
2019-02-27T20:35:52.401Z,18.07
2019-02-27T20:39:59.168Z,17.60
2019-02-27T20:44:03.493Z,17.50
2019-02-27T20:48:07.718Z,17.00
2019-02-27T20:52:14.524Z,17.00
2019-02-27T20:56:16.383Z,17.23
2019-02-27T21:00:20.740Z,16.67
2019-02-27T21:04:24.120Z,16.62
2019-02-27T21:08:27.635Z,16.23
2019-02-27T21:12:31.041Z,16.42
2019-02-27T21:16:35.984Z,16.73
2019-02-27T21:20:39.405Z,16.97
2019-02-27T21:24:44.542Z,16.55
2019-02-27T21:28:57.888Z,17.90
2019-02-27T21:32:53.105Z,15.43
2019-02-27T21:36:56.510Z,17.07
2019-02-27T21:40:59.919Z,15.10
2019-02-27T21:45:04.603Z,15.32
2019-02-27T21:49:08.275Z,14.95
2019-02-27T21:53:11.682Z,15.43
2019-02-27T21:57:15.100Z,15.78
2019-02-27T22:01:19.246Z,15.10
2019-02-27T22:05:23.667Z,14.20
2019-02-27T22:09:27.068Z,13.95
2019-02-27T22:13:32.317Z,13.78
2019-02-27T22:17:36.667Z,15.25
2019-02-27T22:21:41.076Z,14.40
2019-02-27T22:25:44.483Z,14.73
2019-02-27T22:29:47.897Z,14.80
2019-02-27T22:33:53.106Z,13.20
2019-02-27T22:37:56.454Z,14.85
2019-02-27T22:41:59.864Z,15.55
2019-02-27T22:46:03.476Z,15.35
2019-02-27T22:50:09.879Z,13.68
2019-02-27T22:54:13.284Z,14.26
2019-02-27T22:58:16.900Z,14.40
2019-02-27T23:02:21.592Z,14.68
2019-02-27T23:06:25.748Z,15.90
2019-02-27T23:10:30.929Z,13.10
2019-02-27T23:14:34.305Z,14.65
2019-02-27T23:18:40.337Z,15.80
2019-02-27T23:22:42.860Z,15.43
2019-02-27T23:26:46.268Z,14.53
2019-02-27T23:30:49.677Z,16.42
2019-02-27T23:34:53.085Z,16.15
2019-02-27T23:38:56.492Z,15.70
2019-02-27T23:43:03.383Z,16.90
2019-02-27T23:47:05.053Z,15.60
2019-02-27T23:51:08.768Z,16.87
2019-02-27T23:55:12.178Z,17.75
2019-02-27T23:59:15.592Z,17.55
